Time;durP1;ratioP1;P1;durP2;ratioP2;P2;SDS_P1;SDS_P2;PMS_P1;PMS_P2;Temp;Humidity;BMP_temperature;BMP_pressure;BME280_temperature;BME280_humidity;BME280_pressure;Samples;Min_cycle;Max_cycle;Signal;HPM_P1;HPM_P2
2022/10/24 00:00:25;;;;;;;11.40;4.95;;;14.00;99.90;;;;;;4675407;28;10000742;-72
2022/10/24 00:02:51;;;;;;;14.57;5.93;;;14.00;99.90;;;;;;5011062;28;20020;-72
2022/10/24 00:05:17;;;;;;;10.63;5.60;;;14.00;99.90;;;;;;5011869;28;20036;-72
2022/10/24 00:07:42;;;;;;;11.90;5.50;;;14.00;99.90;;;;;;5026853;28;20034;-72
2022/10/24 00:10:11;;;;;;;12.95;6.00;;;14.00;99.90;;;;;;5017727;28;20116;-72
2022/10/24 00:12:37;;;;;;;14.15;5.95;;;13.90;99.90;;;;;;5022173;28;20513;-72
2022/10/24 00:15:03;;;;;;;12.95;5.90;;;13.90;99.90;;;;;;5030134;28;20067;-71
2022/10/24 00:17:29;;;;;;;11.15;6.28;;;13.90;99.90;;;;;;5035831;28;20017;-72
2022/10/24 00:19:57;;;;;;;16.85;6.13;;;13.80;99.90;;;;;;5021698;28;20040;-72
2022/10/24 00:22:23;;;;;;;14.80;6.50;;;13.80;99.90;;;;;;5024580;28;20253;-72
2022/10/24 00:24:48;;;;;;;17.17;6.07;;;13.70;99.90;;;;;;5032058;28;20115;-71
2022/10/24 00:27:14;;;;;;;12.88;6.45;;;13.70;99.90;;;;;;5027031;28;20086;-71
2022/10/24 00:29:40;;;;;;;11.30;5.97;;;13.60;99.90;;;;;;5026939;28;20155;-71
2022/10/24 00:32:06;;;;;;;16.15;6.32;;;13.60;99.90;;;;;;5025324;28;20027;-71
2022/10/24 00:34:31;;;;;;;17.83;6.63;;;13.60;99.90;;;;;;5024320;28;20710;-71
2022/10/24 00:36:57;;;;;;;17.20;6.00;;;13.60;99.90;;;;;;5032452;28;20025;-71
2022/10/24 00:39:23;;;;;;;13.63;5.35;;;13.60;99.90;;;;;;5035482;28;20034;-71
2022/10/24 00:41:48;;;;;;;15.20;6.05;;;13.60;99.90;;;;;;5022228;28;20475;-71
2022/10/24 00:44:38;;;;;;;15.45;6.38;;;13.50;99.90;;;;;;5016967;28;20582;-71
2022/10/24 00:47:06;;;;;;;17.42;6.40;;;13.50;99.90;;;;;;5030212;28;20580;-72
2022/10/24 00:49:50;;;;;;;17.92;6.45;;;13.50;99.90;;;;;;5025460;28;20047;-71
2022/10/24 00:52:22;;;;;;;23.60;6.80;;;13.50;99.90;;;;;;5023258;28;20505;-71
2022/10/24 00:54:51;;;;;;;19.65;6.88;;;13.50;99.90;;;;;;5024868;28;20064;-72
2022/10/24 00:57:42;;;;;;;19.65;6.70;;;13.50;99.90;;;;;;5032095;28;20045;-72
2022/10/24 01:00:12;;;;;;;14.98;6.55;;;13.50;99.90;;;;;;5024202;28;20326;-72
2022/10/24 01:02:38;;;;;;;15.90;6.28;;;13.50;99.90;;;;;;5036225;28;20388;-72
2022/10/24 01:05:07;;;;;;;13.35;6.57;;;13.50;99.90;;;;;;5025434;28;20030;-72
2022/10/24 01:07:32;;;;;;;10.40;5.68;;;13.50;99.90;;;;;;5013613;28;20029;-72
2022/10/24 01:09:58;;;;;;;9.57;5.20;;;13.50;99.90;;;;;;5016113;28;20029;-72
2022/10/24 01:12:35;;;;;;;14.75;5.50;;;13.40;99.90;;;;;;5022300;28;20481;-72
2022/10/24 01:15:08;;;;;;;14.40;5.65;;;13.40;99.90;;;;;;5018986;28;20045;-72
2022/10/24 01:17:44;;;;;;;8.75;4.65;;;13.30;99.90;;;;;;5015623;28;20552;-72
2022/10/24 01:20:47;;;;;;;10.25;4.93;;;13.30;99.90;;;;;;5019393;28;20045;-72
2022/10/24 01:23:46;;;;;;;10.07;4.70;;;13.20;99.90;;;;;;5026924;28;20025;-72
2022/10/24 01:26:32;;;;;;;8.65;4.13;;;13.20;99.90;;;;;;5012543;28;20017;-71
2022/10/24 01:29:22;;;;;;;7.35;4.65;;;13.20;99.90;;;;;;5007678;28;20033;-72
2022/10/24 01:32:05;;;;;;;12.57;5.40;;;13.10;99.90;;;;;;5011054;28;20513;-72
2022/10/24 01:34:38;;;;;;;18.75;6.40;;;13.10;99.90;;;;;;5005939;28;21008;-72
2022/10/24 01:37:08;;;;;;;;;;;13.10;99.90;;;;;;5009286;28;20052;-72
2022/10/24 01:39:40;;;;;;;13.70;5.70;;;13.00;99.90;;;;;;5008656;28;19913;-71
2022/10/24 01:42:08;;;;;;;12.57;5.95;;;13.00;99.90;;;;;;5019356;28;20029;-71
2022/10/24 01:44:41;;;;;;;15.07;6.32;;;13.00;99.90;;;;;;5023807;28;20072;-71
2022/10/24 01:47:15;;;;;;;8.60;4.97;;;13.00;99.90;;;;;;5034584;28;20025;-72
2022/10/24 01:49:45;;;;;;;9.23;4.80;;;13.00;99.90;;;;;;5024971;28;20040;-71
2022/10/24 01:52:14;;;;;;;10.07;4.53;;;12.90;99.90;;;;;;5024160;28;20466;-71
2022/10/24 01:54:42;;;;;;;5.38;4.15;;;12.90;99.90;;;;;;5024973;28;20496;-71
2022/10/24 01:57:08;;;;;;;10.02;4.68;;;12.90;99.90;;;;;;5036020;28;20022;-71
2022/10/24 01:59:36;;;;;;;6.93;4.10;;;12.80;99.90;;;;;;5028937;28;20040;-71
2022/10/24 02:02:07;;;;;;;6.20;4.00;;;12.80;99.90;;;;;;5023678;28;20560;-72
2022/10/24 02:04:35;;;;;;;5.63;3.60;;;12.70;99.90;;;;;;5012651;28;20037;-71
2022/10/24 02:07:06;;;;;;;7.05;3.63;;;12.80;99.90;;;;;;5011905;28;20033;-72
2022/10/24 02:09:34;;;;;;;6.18;3.55;;;12.70;99.90;;;;;;5015887;28;20161;-71
2022/10/24 02:12:00;;;;;;;10.25;4.38;;;12.70;99.90;;;;;;5013065;28;20473;-71
2022/10/24 02:14:39;;;;;;;5.65;3.67;;;12.60;99.90;;;;;;5023863;28;20039;-72
2022/10/24 02:17:05;;;;;;;7.47;4.05;;;12.60;99.90;;;;;;5011955;28;20059;-72
2022/10/24 02:19:31;;;;;;;6.15;3.78;;;12.50;99.90;;;;;;5012786;28;20072;-71
2022/10/24 02:22:21;;;;;;;6.78;3.47;;;12.50;99.90;;;;;;5023981;28;20029;-71
2022/10/24 02:25:10;;;;;;;5.80;3.40;;;12.50;99.90;;;;;;5016978;28;20040;-72
2022/10/24 02:27:44;;;;;;;4.65;3.10;;;12.50;99.90;;;;;;5010813;28;20060;-71
2022/10/24 02:30:14;;;;;;;4.72;2.88;;;12.40;99.90;;;;;;5010458;28;20041;-72
2022/10/24 02:32:44;;;;;;;3.78;3.03;;;12.40;99.90;;;;;;5006228;28;20029;-72
2022/10/24 02:35:13;;;;;;;7.82;3.50;;;12.40;99.90;;;;;;5017187;28;20109;-71
2022/10/24 02:37:43;;;;;;;8.65;4.15;;;12.40;99.90;;;;;;5012994;28;20041;-72
2022/10/24 02:40:11;;;;;;;16.70;6.05;;;12.40;99.90;;;;;;5017689;28;20032;-72
2022/10/24 02:42:39;;;;;;;11.48;4.95;;;12.40;99.90;;;;;;5018146;28;20477;-72
2022/10/24 02:45:08;;;;;;;10.30;4.80;;;12.50;99.90;;;;;;5024944;28;20118;-72
2022/10/24 02:47:35;;;;;;;9.85;4.53;;;12.40;99.90;;;;;;5016529;28;20499;-72
2022/10/24 02:50:01;;;;;;;11.60;4.60;;;12.40;99.90;;;;;;5019007;28;20047;-72
2022/10/24 02:52:29;;;;;;;13.38;4.82;;;12.40;99.90;;;;;;5018892;28;20025;-71
2022/10/24 02:54:55;;;;;;;12.15;5.28;;;12.40;99.90;;;;;;5018687;28;20033;-72
2022/10/24 02:57:22;;;;;;;8.82;4.57;;;12.40;99.90;;;;;;5026763;28;20025;-71
2022/10/24 02:59:48;;;;;;;9.07;4.85;;;12.40;99.90;;;;;;5022509;28;20433;-71
2022/10/24 03:02:14;;;;;;;12.45;4.38;;;12.40;99.90;;;;;;5037528;28;20037;-71
2022/10/24 03:04:39;;;;;;;10.85;4.90;;;12.40;99.90;;;;;;5030479;28;20044;-71
2022/10/24 03:07:06;;;;;;;12.93;4.35;;;12.40;99.90;;;;;;5027250;28;20124;-71
2022/10/24 03:09:33;;;;;;;12.13;4.65;;;12.40;99.90;;;;;;5038932;28;20102;-71
2022/10/24 03:11:58;;;;;;;12.23;5.07;;;12.40;99.90;;;;;;5031056;28;20033;-71
2022/10/24 03:14:24;;;;;;;14.35;5.00;;;12.40;99.90;;;;;;5030671;28;20017;-72
2022/10/24 03:16:50;;;;;;;15.65;5.05;;;12.40;99.90;;;;;;5030397;28;20549;-71
2022/10/24 03:19:15;;;;;;;11.52;4.90;;;12.40;99.90;;;;;;5040127;28;20070;-71
2022/10/24 03:21:41;;;;;;;12.73;5.03;;;12.40;99.90;;;;;;5032437;28;20033;-71
2022/10/24 03:24:07;;;;;;;9.65;4.80;;;12.40;99.90;;;;;;5037992;28;20037;-71
2022/10/24 03:26:33;;;;;;;9.82;4.57;;;12.40;99.90;;;;;;5029441;28;20465;-71
2022/10/24 03:28:58;;;;;;;12.23;4.60;;;12.30;99.90;;;;;;5027368;28;20040;-71
2022/10/24 03:31:24;;;;;;;9.00;4.55;;;12.30;99.90;;;;;;5031239;28;20346;-72
2022/10/24 03:33:50;;;;;;;7.68;4.43;;;12.20;99.90;;;;;;5021128;28;20021;-72
2022/10/24 03:36:16;;;;;;;8.10;4.28;;;12.20;99.90;;;;;;5025670;28;20560;-72
2022/10/24 03:38:41;;;;;;;10.60;4.65;;;12.20;99.90;;;;;;5042124;28;20397;-72
2022/10/24 03:41:07;;;;;;;8.40;4.47;;;12.20;99.90;;;;;;5031149;28;20120;-71
2022/10/24 03:43:33;;;;;;;8.25;4.22;;;12.10;99.90;;;;;;5032504;28;20074;-72
2022/10/24 03:45:58;;;;;;;10.38;4.55;;;12.10;99.90;;;;;;5029295;28;20044;-72
2022/10/24 03:48:25;;;;;;;7.25;4.63;;;12.10;99.90;;;;;;5035532;28;20025;-72
2022/10/24 03:50:50;;;;;;;10.63;5.07;;;12.10;99.90;;;;;;5026643;28;20040;-72
2022/10/24 03:53:16;;;;;;;9.35;4.88;;;12.10;99.90;;;;;;5038353;28;20411;-71
2022/10/24 03:55:42;;;;;;;9.15;4.25;;;12.10;99.90;;;;;;5034043;28;20048;-72
2022/10/24 03:58:07;;;;;;;8.48;4.53;;;12.10;99.90;;;;;;5029658;28;20397;-72
2022/10/24 04:00:38;;;;;;;8.75;4.80;;;12.10;99.90;;;;;;5024887;28;20026;-72
2022/10/24 04:03:04;;;;;;;9.02;5.00;;;12.10;99.90;;;;;;5028739;28;20484;-72
2022/10/24 04:05:29;;;;;;;9.45;4.88;;;12.10;99.90;;;;;;5025861;28;20016;-71
2022/10/24 04:07:55;;;;;;;8.35;4.78;;;12.10;99.90;;;;;;5032291;28;20032;-71
2022/10/24 04:10:20;;;;;;;9.98;4.80;;;12.10;99.90;;;;;;5034218;28;20025;-72
2022/10/24 04:12:46;;;;;;;11.18;5.03;;;12.10;99.90;;;;;;5026989;28;20033;-71
2022/10/24 04:15:12;;;;;;;13.93;6.13;;;12.10;99.90;;;;;;5031532;28;20079;-72
2022/10/24 04:17:37;;;;;;;10.70;5.68;;;12.10;99.90;;;;;;5032918;28;20085;-71
2022/10/24 04:20:04;;;;;;;13.73;5.97;;;12.10;99.90;;;;;;5035709;28;20080;-71
2022/10/24 04:22:29;;;;;;;20.63;6.95;;;12.10;99.90;;;;;;5036009;28;20104;-71
2022/10/24 04:24:55;;;;;;;17.17;7.00;;;12.20;99.90;;;;;;5029610;28;20659;-71
2022/10/24 04:27:20;;;;;;;22.67;7.40;;;12.20;99.90;;;;;;5025315;28;20017;-71
2022/10/24 04:29:46;;;;;;;16.73;7.00;;;12.20;99.90;;;;;;5027900;28;20077;-71
2022/10/24 04:32:12;;;;;;;14.82;7.40;;;12.10;99.90;;;;;;5029176;28;20108;-71
2022/10/24 04:34:38;;;;;;;17.70;7.53;;;12.10;99.90;;;;;;5028791;28;20029;-72
2022/10/24 04:37:04;;;;;;;18.00;7.93;;;12.10;99.90;;;;;;5032129;28;20044;-72
2022/10/24 04:39:29;;;;;;;18.63;6.95;;;12.10;99.90;;;;;;5033662;28;20066;-72
2022/10/24 04:41:55;;;;;;;20.55;7.82;;;12.00;99.90;;;;;;5026269;28;20036;-72
2022/10/24 04:44:21;;;;;;;23.50;7.35;;;12.00;99.90;;;;;;5034387;28;20036;-72
2022/10/24 04:46:46;;;;;;;11.93;6.90;;;12.00;99.90;;;;;;5032285;28;20036;-71
2022/10/24 04:49:12;;;;;;;21.77;7.38;;;12.10;99.90;;;;;;5026229;28;20167;-71
2022/10/24 04:51:37;;;;;;;21.90;8.43;;;12.10;99.90;;;;;;5022100;28;20036;-72
2022/10/24 04:54:04;;;;;;;16.73;7.90;;;12.10;99.90;;;;;;5023132;28;20457;-72
2022/10/24 04:56:30;;;;;;;23.33;8.52;;;12.20;99.90;;;;;;5024448;28;20116;-72
2022/10/24 04:58:56;;;;;;;28.15;8.85;;;12.20;99.90;;;;;;5024049;28;20139;-72
2022/10/24 05:01:21;;;;;;;22.15;7.95;;;12.20;99.90;;;;;;5018772;28;20091;-71
2022/10/24 05:03:47;;;;;;;21.70;8.40;;;12.20;99.90;;;;;;5014116;28;20486;-72
2022/10/24 05:06:13;;;;;;;20.40;8.57;;;12.20;99.90;;;;;;5010863;28;20116;-71
2022/10/24 05:08:38;;;;;;;16.70;8.20;;;12.20;99.90;;;;;;5019459;28;20029;-72
2022/10/24 05:11:04;;;;;;;25.35;8.10;;;12.20;99.90;;;;;;5020015;28;20478;-72
2022/10/24 05:13:30;;;;;;;27.55;8.50;;;12.30;99.90;;;;;;5019141;28;20470;-72
2022/10/24 05:15:55;;;;;;;20.35;7.57;;;12.30;99.90;;;;;;5022497;28;20262;-72
2022/10/24 05:18:21;;;;;;;23.60;7.90;;;12.30;99.90;;;;;;5017833;28;20465;-72
2022/10/24 05:20:47;;;;;;;14.35;6.70;;;12.30;99.90;;;;;;5030109;28;20552;-72
2022/10/24 05:23:12;;;;;;;13.57;6.85;;;12.30;99.90;;;;;;5027062;28;20036;-72
2022/10/24 05:25:38;;;;;;;19.02;7.07;;;12.30;99.90;;;;;;5028090;28;20072;-71
2022/10/24 05:28:04;;;;;;;25.00;7.13;;;12.30;99.90;;;;;;5025851;28;20033;-72
2022/10/24 05:30:30;;;;;;;18.60;7.20;;;12.30;99.90;;;;;;5034603;28;20532;-71
2022/10/24 05:32:55;;;;;;;18.67;7.03;;;12.40;99.90;;;;;;5029251;28;20509;-72
2022/10/24 05:35:21;;;;;;;23.27;7.57;;;12.40;99.90;;;;;;5032298;28;20331;-71
2022/10/24 05:37:47;;;;;;;19.35;7.55;;;12.40;99.90;;;;;;5032488;28;20022;-71
2022/10/24 05:40:13;;;;;;;24.83;7.28;;;12.40;99.90;;;;;;5033028;28;20341;-71
2022/10/24 05:42:39;;;;;;;21.20;7.28;;;12.50;99.90;;;;;;5028079;28;20552;-71
2022/10/24 05:45:07;;;;;;;20.08;8.57;;;12.50;99.90;;;;;;5026969;28;20018;-72
2022/10/24 05:47:33;;;;;;;29.15;8.35;;;12.40;99.90;;;;;;5029055;28;20059;-72
2022/10/24 05:49:59;;;;;;;15.82;7.15;;;12.40;99.90;;;;;;5025873;28;20076;-71
2022/10/24 05:52:24;;;;;;;24.50;8.20;;;12.30;99.90;;;;;;5032136;28;20021;-72
2022/10/24 05:54:50;;;;;;;22.60;8.27;;;12.20;99.90;;;;;;5033598;28;20048;-72
2022/10/24 05:57:15;;;;;;;26.85;7.43;;;12.20;99.90;;;;;;5027367;28;20031;-71
2022/10/24 05:59:41;;;;;;;17.70;7.55;;;12.20;99.90;;;;;;5034491;28;20495;-71
2022/10/24 06:02:09;;;;;;;22.05;7.75;;;12.10;99.90;;;;;;5030584;28;20032;-71
2022/10/24 06:04:35;;;;;;;18.95;7.90;;;12.10;99.90;;;;;;5037937;28;20033;-71
2022/10/24 06:07:00;;;;;;;20.83;7.57;;;12.10;99.90;;;;;;5038694;28;20037;-72
2022/10/24 06:09:27;;;;;;;19.45;8.30;;;12.10;99.90;;;;;;5033527;28;20043;-72
2022/10/24 06:11:52;;;;;;;26.60;8.65;;;12.10;99.90;;;;;;5033737;28;20013;-72
2022/10/24 06:14:18;;;;;;;25.25;7.78;;;12.10;99.90;;;;;;5043550;28;20017;-72
2022/10/24 06:16:44;;;;;;;21.05;7.95;;;12.10;99.90;;;;;;5043923;28;20029;-72
2022/10/24 06:19:09;;;;;;;22.73;7.30;;;12.10;99.90;;;;;;5039016;28;20025;-72
2022/10/24 06:21:35;;;;;;;26.88;7.88;;;12.20;99.90;;;;;;5033087;28;20061;-72
2022/10/24 06:24:00;;;;;;;20.70;7.30;;;12.20;99.90;;;;;;5031674;28;20040;-72
2022/10/24 06:26:26;;;;;;;21.42;7.80;;;12.20;99.90;;;;;;5038559;28;20023;-72
2022/10/24 06:28:53;;;;;;;18.67;6.82;;;12.30;99.90;;;;;;5029823;28;20555;-72
2022/10/24 06:31:20;;;;;;;32.55;9.00;;;12.30;99.90;;;;;;5028603;28;20440;-72
2022/10/24 06:33:46;;;;;;;22.08;8.02;;;12.30;99.90;;;;;;5035207;28;20025;-72
2022/10/24 06:36:13;;;;;;;24.48;8.27;;;12.30;99.90;;;;;;5032770;28;20079;-72
2022/10/24 06:38:39;;;;;;;19.13;7.57;;;12.30;99.90;;;;;;5038968;28;20116;-72
2022/10/24 06:41:10;;;;;;;24.60;7.90;;;12.40;99.90;;;;;;5033458;28;20109;-72
2022/10/24 06:43:37;;;;;;;27.55;7.70;;;12.40;99.90;;;;;;5026422;28;20084;-72
2022/10/24 06:46:07;;;;;;;38.22;17.30;;;12.50;99.90;;;;;;5030951;28;20083;-72
2022/10/24 06:48:34;;;;;;;52.60;25.45;;;12.60;99.90;;;;;;5034094;28;20124;-72
2022/10/24 06:50:59;;;;;;;28.80;10.13;;;12.60;99.90;;;;;;5029068;28;20075;-71
2022/10/24 06:53:25;;;;;;;27.77;12.00;;;12.70;99.90;;;;;;5030454;28;20267;-72
2022/10/24 06:55:50;;;;;;;26.45;11.07;;;12.70;99.90;;;;;;5034822;28;20064;-72
2022/10/24 06:58:16;;;;;;;25.73;11.27;;;12.80;99.90;;;;;;5037200;28;20040;-72
2022/10/24 07:00:42;;;;;;;30.80;8.35;;;12.80;99.90;;;;;;5033925;28;20473;-71
2022/10/24 07:03:13;;;;;;;16.95;8.23;;;12.90;99.90;;;;;;5035372;28;20091;-72
2022/10/24 07:05:39;;;;;;;23.15;11.00;;;13.00;99.90;;;;;;5037335;28;20025;-72
2022/10/24 07:08:05;;;;;;;31.08;10.00;;;13.10;99.90;;;;;;5037825;28;20044;-72
2022/10/24 07:10:30;;;;;;;31.25;9.27;;;13.10;99.90;;;;;;5031400;28;20026;-72
2022/10/24 07:12:56;;;;;;;34.53;8.98;;;13.20;99.90;;;;;;5030341;28;20027;-72
2022/10/24 07:15:21;;;;;;;23.30;9.25;;;13.20;99.90;;;;;;5033078;28;20393;-71
2022/10/24 07:17:47;;;;;;;26.63;7.88;;;13.20;99.90;;;;;;5032512;28;20025;-72
2022/10/24 07:20:13;;;;;;;22.13;7.65;;;13.30;99.90;;;;;;5039260;28;20028;-72
2022/10/24 07:22:39;;;;;;;17.55;7.57;;;13.30;99.90;;;;;;5031157;28;20030;-73
2022/10/24 07:25:05;;;;;;;24.13;7.55;;;13.40;99.90;;;;;;5032902;28;20025;-73
2022/10/24 07:27:32;;;;;;;25.75;7.95;;;13.40;99.90;;;;;;5027547;28;20056;-72
2022/10/24 07:29:57;;;;;;;23.92;6.90;;;13.50;99.90;;;;;;5026609;28;20052;-73
2022/10/24 07:32:23;;;;;;;21.67;6.40;;;13.60;99.90;;;;;;5024938;28;20033;-73
2022/10/24 07:34:49;;;;;;;20.00;6.30;;;13.60;99.90;;;;;;5030440;28;20021;-73
2022/10/24 07:37:15;;;;;;;25.90;6.88;;;13.70;99.90;;;;;;5027923;28;20025;-74
2022/10/24 07:39:41;;;;;;;19.38;6.63;;;13.70;99.90;;;;;;5028855;28;20059;-73
2022/10/24 07:42:06;;;;;;;19.42;5.85;;;13.80;99.90;;;;;;5032414;28;20086;-73
2022/10/24 07:44:32;;;;;;;22.80;6.07;;;13.90;99.90;;;;;;5026517;28;20440;-73
2022/10/24 07:46:58;;;;;;;19.10;6.40;;;13.90;99.90;;;;;;5033222;28;20032;-73
2022/10/24 07:49:23;;;;;;;14.13;5.85;;;14.00;99.90;;;;;;5038479;28;20469;-73
2022/10/24 07:51:49;;;;;;;20.20;7.28;;;14.10;99.90;;;;;;5042688;28;20509;-73
2022/10/24 07:54:15;;;;;;;29.25;12.40;;;14.10;99.90;;;;;;5039319;28;20033;-72
2022/10/24 07:56:40;;;;;;;27.75;9.32;;;14.10;99.90;;;;;;5045507;28;20072;-73
2022/10/24 07:59:06;;;;;;;19.42;6.80;;;14.20;99.90;;;;;;5045160;28;20392;-72
2022/10/24 08:01:32;;;;;;;23.63;6.07;;;14.30;99.90;;;;;;5033038;28;20041;-72
2022/10/24 08:03:57;;;;;;;22.35;6.45;;;14.30;99.90;;;;;;5030025;28;20659;-73
2022/10/24 08:06:28;;;;;;;22.58;5.43;;;14.40;99.90;;;;;;5037974;28;20036;-73
2022/10/24 08:08:54;;;;;;;22.75;5.15;;;14.40;99.90;;;;;;5042667;28;20029;-72
2022/10/24 08:11:22;;;;;;;16.70;5.18;;;14.50;99.90;;;;;;5031844;28;20037;-72
2022/10/24 08:13:49;;;;;;;20.83;4.97;;;14.60;99.90;;;;;;5031052;28;20017;-72
2022/10/24 08:16:18;;;;;;;17.70;5.35;;;14.70;99.90;;;;;;5027251;28;20027;-72
2022/10/24 08:18:43;;;;;;;19.92;4.70;;;14.70;99.90;;;;;;5038470;28;20060;-72
2022/10/24 08:21:11;;;;;;;20.20;5.22;;;14.80;99.90;;;;;;5029046;28;20440;-72
2022/10/24 08:23:40;;;;;;;19.85;4.97;;;14.90;99.90;;;;;;5028806;28;20033;-73
2022/10/24 08:26:07;;;;;;;22.95;4.90;;;14.90;99.90;;;;;;5034020;28;20114;-73
2022/10/24 08:28:33;;;;;;;17.45;4.60;;;15.00;99.90;;;;;;5036845;28;20071;-72
2022/10/24 08:31:02;;;;;;;17.15;4.68;;;15.00;99.90;;;;;;5041973;28;20349;-73
2022/10/24 08:33:27;;;;;;;21.50;5.22;;;15.10;99.90;;;;;;5023154;28;20758;-73
2022/10/24 08:35:59;;;;;;;21.80;5.45;;;15.10;99.90;;;;;;5025107;28;20025;-73
2022/10/24 08:38:25;;;;;;;21.80;4.90;;;15.10;99.90;;;;;;5037354;28;20094;-73
2022/10/24 08:40:51;;;;;;;23.05;5.60;;;15.20;99.90;;;;;;5032635;28;20108;-73
2022/10/24 08:43:18;;;;;;;21.23;5.70;;;15.20;99.90;;;;;;5022577;28;20561;-73
2022/10/24 08:46:00;;;;;;;26.05;6.40;;;15.20;99.90;;;;;;5029222;28;20032;-72
2022/10/24 08:48:30;;;;;;;20.85;5.47;;;15.30;99.90;;;;;;5031246;28;20031;-73
2022/10/24 08:51:05;;;;;;;18.83;7.47;;;15.30;99.90;;;;;;5026651;28;20115;-73
2022/10/24 08:53:32;;;;;;;16.73;5.03;;;15.30;99.90;;;;;;5024112;28;20397;-73
2022/10/24 08:56:00;;;;;;;18.20;4.72;;;15.40;99.90;;;;;;5032582;28;20324;-73
2022/10/24 08:58:30;;;;;;;17.45;4.65;;;15.50;99.90;;;;;;5040255;28;20057;-73
2022/10/24 09:00:59;;;;;;;14.55;4.35;;;15.50;99.90;;;;;;5035749;28;20332;-73
2022/10/24 09:03:45;;;;;;;14.98;4.40;;;15.60;99.90;;;;;;5040961;28;20021;-72
2022/10/24 09:06:16;;;;;;;17.27;5.00;;;15.60;99.90;;;;;;5032911;28;20033;-72
2022/10/24 09:08:45;;;;;;;15.13;4.25;;;15.70;99.90;;;;;;5045415;28;20029;-72
2022/10/24 09:11:19;;;;;;;21.38;4.65;;;15.80;99.90;;;;;;5046272;28;20485;-72
2022/10/24 09:13:45;;;;;;;18.08;4.95;;;15.80;99.90;;;;;;5033612;28;20768;-72
2022/10/24 09:16:15;;;;;;;20.85;5.55;;;15.90;99.90;;;;;;5036642;28;20098;-72
2022/10/24 09:18:43;;;;;;;18.77;6.78;;;15.90;99.90;;;;;;5026398;28;20049;-73
2022/10/24 09:21:13;;;;;;;20.13;4.13;;;15.90;99.90;;;;;;5028379;28;20584;-73
2022/10/24 09:23:39;;;;;;;15.07;4.20;;;15.90;99.90;;;;;;5036285;28;20029;-73
2022/10/24 09:26:12;;;;;;;19.73;4.18;;;15.90;99.90;;;;;;5028038;28;20120;-73
2022/10/24 09:28:39;;;;;;;11.77;3.60;;;15.90;99.90;;;;;;5038166;28;20322;-72
2022/10/24 09:31:17;;;;;;;15.93;3.92;;;15.90;99.90;;;;;;5031893;28;20034;-73
2022/10/24 09:33:45;;;;;;;12.80;3.45;;;16.00;99.90;;;;;;5026300;28;20496;-73
2022/10/24 09:36:14;;;;;;;21.50;3.88;;;16.00;99.90;;;;;;5024830;28;20037;-73
2022/10/24 09:38:41;;;;;;;20.50;3.72;;;16.20;99.90;;;;;;5040802;28;20025;-73
2022/10/24 09:41:12;;;;;;;19.20;3.67;;;16.20;99.90;;;;;;5045915;28;20544;-73
2022/10/24 09:43:45;;;;;;;15.73;3.15;;;16.30;99.90;;;;;;5031839;28;20033;-73
2022/10/24 09:46:15;;;;;;;;;;;16.40;99.90;;;;;;5026728;28;20036;-73
2022/10/24 09:48:49;;;;;;;15.20;3.08;;;16.50;99.90;;;;;;5031371;28;19917;-73
2022/10/24 09:51:25;;;;;;;16.77;3.22;;;16.60;99.90;;;;;;5034718;28;20025;-73
2022/10/24 09:54:18;;;;;;;19.10;3.85;;;16.70;99.90;;;;;;5027318;28;20017;-73
2022/10/24 09:56:48;;;;;;;16.63;3.60;;;16.80;99.90;;;;;;5038099;28;20025;-73
2022/10/24 09:59:48;;;;;;;18.35;4.72;;;16.90;99.90;;;;;;5045803;28;20055;-73
2022/10/24 10:02:24;;;;;;;19.88;3.60;;;17.00;99.90;;;;;;5028107;28;20090;-73
2022/10/24 10:05:18;;;;;;;22.33;3.88;;;17.10;99.90;;;;;;5028165;28;20385;-73
2022/10/24 10:07:47;;;;;;;;;;;17.10;99.90;;;;;;5026556;28;20061;-73
2022/10/24 10:10:29;;;;;;;14.35;3.33;;;17.20;99.90;;;;;;5026355;28;19905;-73
2022/10/24 10:13:04;;;;;;;17.65;4.00;;;17.40;99.90;;;;;;5042729;28;20021;-73
2022/10/24 10:15:37;;;;;;;13.85;3.70;;;17.40;99.90;;;;;;5031652;28;20079;-73
2022/10/24 10:18:25;;;;;;;18.13;3.67;;;17.40;99.90;;;;;;5045792;28;20029;-72
2022/10/24 10:21:04;;;;;;;17.10;3.30;;;17.40;99.90;;;;;;5034196;28;20029;-72
2022/10/24 10:23:40;;;;;;;25.50;3.75;;;17.40;99.90;;;;;;5040677;28;20029;-72
2022/10/24 10:26:06;;;;;;;19.48;3.45;;;17.30;99.90;;;;;;5048561;28;20040;-72
2022/10/24 10:28:40;;;;;;;20.05;3.28;;;17.30;99.90;;;;;;5034465;28;20033;-72
2022/10/24 10:31:08;;;;;;;12.07;2.90;;;17.20;99.90;;;;;;5029136;28;20037;-73
2022/10/24 10:33:52;;;;;;;11.18;3.33;;;17.20;99.90;;;;;;5038956;28;20112;-73
2022/10/24 10:36:20;;;;;;;13.45;2.92;;;17.10;99.90;;;;;;5034367;28;20032;-72
2022/10/24 10:38:55;;;;;;;14.13;2.60;;;17.10;99.90;;;;;;5028227;28;20071;-73
2022/10/24 10:41:43;;;;;;;17.67;2.78;;;17.20;99.90;;;;;;5028511;28;20500;-72
2022/10/24 10:44:34;;;;;;;14.85;2.92;;;17.20;99.90;;;;;;5032508;28;20582;-72
2022/10/24 10:47:11;;;;;;;16.13;2.67;;;17.20;99.90;;;;;;5029857;28;20100;-72
2022/10/24 10:49:39;;;;;;;13.35;3.15;;;17.20;99.90;;;;;;5041077;28;20037;-73
2022/10/24 10:52:05;;;;;;;12.80;2.70;;;17.20;99.90;;;;;;5033012;28;20037;-73
2022/10/24 10:54:36;;;;;;;15.63;2.78;;;17.30;99.90;;;;;;5034266;28;20710;-73
2022/10/24 10:57:09;;;;;;;13.43;2.45;;;17.30;99.90;;;;;;5045690;28;20031;-73
2022/10/24 11:00:08;;;;;;;13.02;2.80;;;17.40;99.90;;;;;;5039929;28;20044;-73
2022/10/24 11:02:57;;;;;;;16.23;2.50;;;17.40;99.90;;;;;;5027213;28;20045;-73
2022/10/24 11:05:32;;;;;;;13.77;2.58;;;17.50;99.90;;;;;;5039497;28;20032;-73
2022/10/24 11:08:21;;;;;;;17.52;2.58;;;17.50;99.90;;;;;;5029243;28;20052;-73
2022/10/24 11:10:56;;;;;;;15.82;2.53;;;17.60;99.90;;;;;;5028746;28;20425;-73
2022/10/24 11:13:37;;;;;;;16.27;2.92;;;17.60;99.90;;;;;;5026221;28;20104;-73
2022/10/24 11:16:09;;;;;;;15.23;2.28;;;17.70;99.90;;;;;;5028499;28;20033;-73
2022/10/24 11:18:39;;;;;;;10.40;2.63;;;17.90;99.90;;;;;;5042215;28;20090;-73
2022/10/24 11:21:10;;;;;;;9.80;2.35;;;18.00;99.90;;;;;;5037775;28;20017;-73
2022/10/24 11:24:00;;;;;;;8.05;2.22;;;18.10;99.90;;;;;;5032993;28;20032;-74
2022/10/24 11:26:47;;;;;;;17.65;2.72;;;18.20;99.90;;;;;;5032148;28;20041;-73
2022/10/24 11:29:47;;;;;;;13.00;2.67;;;18.30;99.90;;;;;;5040398;28;20037;-73
2022/10/24 11:32:41;;;;;;;11.73;2.72;;;18.30;99.90;;;;;;5024123;28;20110;-73
2022/10/24 11:35:16;;;;;;;15.60;2.80;;;18.30;99.90;;;;;;5027227;28;20257;-73
2022/10/24 11:37:46;;;;;;;10.70;2.35;;;18.30;99.90;;;;;;5029527;28;20029;-73
2022/10/24 11:40:25;;;;;;;9.63;2.40;;;18.20;99.90;;;;;;5030274;28;20216;-73
2022/10/24 11:43:12;;;;;;;14.75;2.78;;;18.10;99.90;;;;;;5040722;28;20052;-73
2022/10/24 11:46:02;;;;;;;12.30;2.80;;;18.00;99.90;;;;;;5046912;28;20086;-73
2022/10/24 11:48:45;;;;;;;16.90;3.40;;;18.00;99.90;;;;;;5046356;28;20039;-73
2022/10/24 11:51:29;;;;;;;16.88;3.22;;;17.90;99.90;;;;;;5045141;28;20492;-73
2022/10/24 11:54:01;;;;;;;11.90;2.70;;;17.80;99.90;;;;;;5026882;28;20136;-73
2022/10/24 11:56:38;;;;;;;17.42;3.08;;;17.80;99.90;;;;;;5036034;28;20321;-73
2022/10/24 11:59:06;;;;;;;19.63;2.80;;;17.70;99.90;;;;;;5029335;28;20103;-72
2022/10/24 12:01:53;;;;;;;18.17;3.05;;;17.70;99.90;;;;;;5037096;28;20100;-73
2022/10/24 12:04:25;;;;;;;15.13;3.30;;;17.70;99.90;;;;;;5038792;28;20029;-73
2022/10/24 12:07:03;;;;;;;14.35;3.17;;;17.70;99.90;;;;;;5041308;28;20112;-73
2022/10/24 12:10:17;;;;;;;12.13;2.83;;;17.70;99.90;;;;;;5038101;28;20029;-74
2022/10/24 12:13:04;;;;;;;14.68;3.05;;;17.70;99.90;;;;;;5038603;28;20588;-73
2022/10/24 12:15:56;;;;;;;18.40;3.10;;;17.80;99.90;;;;;;5027123;28;20028;-73
2022/10/24 12:18:27;;;;;;;11.75;2.90;;;17.90;99.90;;;;;;5027450;28;20061;-73
2022/10/24 12:20:55;;;;;;;9.93;3.20;;;17.90;99.90;;;;;;5035251;28;20545;-73
2022/10/24 12:23:26;;;;;;;13.82;3.00;;;18.10;99.90;;;;;;5028726;28;20537;-73
2022/10/24 12:26:02;;;;;;;17.25;2.67;;;18.30;99.90;;;;;;5026821;28;20385;-74
2022/10/24 12:28:28;;;;;;;15.82;2.33;;;18.30;99.90;;;;;;5026451;28;20025;-73
2022/10/24 12:31:17;;;;;;;12.10;3.15;;;18.60;99.90;;;;;;5033401;28;20412;-74
2022/10/24 12:33:44;;;;;;;10.13;2.50;;;18.90;99.90;;;;;;5031417;28;20021;-73
2022/10/24 12:36:10;;;;;;;17.58;2.10;;;19.10;99.90;;;;;;5036956;28;20067;-74
2022/10/24 12:38:36;;;;;;;8.13;1.83;;;19.10;99.90;;;;;;5031386;28;20036;-73
2022/10/24 12:41:32;;;;;;;6.45;2.03;;;19.20;99.90;;;;;;5060500;28;20021;-74
2022/10/24 12:44:23;;;;;;;11.02;2.47;;;19.10;99.90;;;;;;5024811;28;20462;-73
2022/10/24 12:46:53;;;;;;;7.10;2.00;;;19.00;99.90;;;;;;5034437;28;20080;-73
2022/10/24 12:49:30;;;;;;;12.23;2.88;;;19.00;99.90;;;;;;5026526;28;20033;-73
2022/10/24 12:51:56;;;;;;;12.63;2.45;;;18.90;99.90;;;;;;5025644;28;20025;-73
2022/10/24 12:54:40;;;;;;;10.82;2.30;;;18.80;99.90;;;;;;5024284;28;20466;-73